sensor_id;sensor_type;location;lat;lon;timestamp;P1;durP1;ratioP1;P2;durP2;ratioP2
52674;SDS011;38569;52.722;6.440;2023-03-05T00:00:09;10.63;;;2.58;;
52674;SDS011;38569;52.722;6.440;2023-03-05T00:02:36;12.75;;;2.42;;
52674;SDS011;38569;52.722;6.440;2023-03-05T00:05:01;10.48;;;2.15;;
52674;SDS011;38569;52.722;6.440;2023-03-05T00:07:27;10.25;;;2.55;;
52674;SDS011;38569;52.722;6.440;2023-03-05T00:09:53;13.95;;;3.85;;
52674;SDS011;38569;52.722;6.440;2023-03-05T00:12:18;14.02;;;2.42;;
52674;SDS011;38569;52.722;6.440;2023-03-05T00:14:44;7.40;;;2.53;;
52674;SDS011;38569;52.722;6.440;2023-03-05T00:17:10;8.90;;;2.80;;
52674;SDS011;38569;52.722;6.440;2023-03-05T00:19:35;10.68;;;2.53;;
52674;SDS011;38569;52.722;6.440;2023-03-05T00:22:01;7.78;;;2.25;;
52674;SDS011;38569;52.722;6.440;2023-03-05T00:24:27;12.18;;;2.55;;
52674;SDS011;38569;52.722;6.440;2023-03-05T00:26:53;13.68;;;2.85;;
52674;SDS011;38569;52.722;6.440;2023-03-05T00:29:20;11.43;;;2.28;;
52674;SDS011;38569;52.722;6.440;2023-03-05T00:31:48;13.57;;;2.92;;
52674;SDS011;38569;52.722;6.440;2023-03-05T00:34:15;11.98;;;2.88;;
52674;SDS011;38569;52.722;6.440;2023-03-05T00:36:43;10.98;;;3.38;;
52674;SDS011;38569;52.722;6.440;2023-03-05T00:39:11;14.45;;;3.10;;
52674;SDS011;38569;52.722;6.440;2023-03-05T00:41:37;14.20;;;3.05;;
52674;SDS011;38569;52.722;6.440;2023-03-05T00:44:03;14.48;;;4.40;;
52674;SDS011;38569;52.722;6.440;2023-03-05T00:46:29;14.18;;;3.67;;
52674;SDS011;38569;52.722;6.440;2023-03-05T00:48:55;12.73;;;2.70;;
52674;SDS011;38569;52.722;6.440;2023-03-05T00:51:21;13.68;;;3.35;;
52674;SDS011;38569;52.722;6.440;2023-03-05T00:53:48;15.02;;;3.42;;
52674;SDS011;38569;52.722;6.440;2023-03-05T00:56:14;15.98;;;3.28;;
52674;SDS011;38569;52.722;6.440;2023-03-05T00:58:40;10.45;;;2.95;;
52674;SDS011;38569;52.722;6.440;2023-03-05T01:01:06;14.98;;;4.15;;
52674;SDS011;38569;52.722;6.440;2023-03-05T01:03:32;14.40;;;2.95;;
52674;SDS011;38569;52.722;6.440;2023-03-05T01:05:59;10.90;;;2.80;;
52674;SDS011;38569;52.722;6.440;2023-03-05T01:08:25;12.90;;;2.65;;
52674;SDS011;38569;52.722;6.440;2023-03-05T01:10:51;15.00;;;3.50;;
52674;SDS011;38569;52.722;6.440;2023-03-05T01:13:17;11.60;;;3.20;;
52674;SDS011;38569;52.722;6.440;2023-03-05T01:15:43;12.10;;;2.83;;
52674;SDS011;38569;52.722;6.440;2023-03-05T01:18:11;17.92;;;4.00;;
52674;SDS011;38569;52.722;6.440;2023-03-05T01:20:37;9.13;;;2.72;;
52674;SDS011;38569;52.722;6.440;2023-03-05T01:23:03;8.55;;;2.55;;
52674;SDS011;38569;52.722;6.440;2023-03-05T01:25:28;12.45;;;2.88;;
52674;SDS011;38569;52.722;6.440;2023-03-05T01:27:54;9.02;;;2.60;;
52674;SDS011;38569;52.722;6.440;2023-03-05T01:30:20;10.65;;;3.00;;
52674;SDS011;38569;52.722;6.440;2023-03-05T01:32:46;14.45;;;3.30;;
52674;SDS011;38569;52.722;6.440;2023-03-05T01:35:16;6.80;;;2.95;;
52674;SDS011;38569;52.722;6.440;2023-03-05T01:37:44;13.07;;;3.05;;
52674;SDS011;38569;52.722;6.440;2023-03-05T01:40:11;8.80;;;2.30;;
52674;SDS011;38569;52.722;6.440;2023-03-05T01:42:38;18.35;;;2.80;;
52674;SDS011;38569;52.722;6.440;2023-03-05T01:45:09;9.10;;;2.30;;
52674;SDS011;38569;52.722;6.440;2023-03-05T01:47:37;8.10;;;2.30;;
52674;SDS011;38569;52.722;6.440;2023-03-05T01:50:06;9.98;;;2.83;;
52674;SDS011;38569;52.722;6.440;2023-03-05T01:52:35;10.48;;;3.88;;
52674;SDS011;38569;52.722;6.440;2023-03-05T01:55:07;6.50;;;2.58;;
52674;SDS011;38569;52.722;6.440;2023-03-05T01:57:39;10.65;;;2.45;;
52674;SDS011;38569;52.722;6.440;2023-03-05T02:00:27;8.40;;;2.43;;
52674;SDS011;38569;52.722;6.440;2023-03-05T02:03:00;14.30;;;2.88;;
52674;SDS011;38569;52.722;6.440;2023-03-05T02:05:30;10.40;;;2.42;;
52674;SDS011;38569;52.722;6.440;2023-03-05T02:08:03;12.70;;;2.80;;
52674;SDS011;38569;52.722;6.440;2023-03-05T02:10:32;8.20;;;2.55;;
52674;SDS011;38569;52.722;6.440;2023-03-05T02:13:01;11.90;;;2.30;;
52674;SDS011;38569;52.722;6.440;2023-03-05T02:15:31;7.88;;;2.60;;
52674;SDS011;38569;52.722;6.440;2023-03-05T02:17:57;11.82;;;2.67;;
52674;SDS011;38569;52.722;6.440;2023-03-05T02:20:24;7.43;;;2.33;;
52674;SDS011;38569;52.722;6.440;2023-03-05T02:22:51;12.68;;;3.80;;
52674;SDS011;38569;52.722;6.440;2023-03-05T02:25:19;8.10;;;2.58;;
52674;SDS011;38569;52.722;6.440;2023-03-05T02:27:48;16.02;;;3.35;;
52674;SDS011;38569;52.722;6.440;2023-03-05T02:30:22;10.05;;;2.65;;
52674;SDS011;38569;52.722;6.440;2023-03-05T02:32:48;13.07;;;3.00;;
52674;SDS011;38569;52.722;6.440;2023-03-05T02:35:14;12.05;;;2.03;;
52674;SDS011;38569;52.722;6.440;2023-03-05T02:37:40;15.27;;;2.72;;
52674;SDS011;38569;52.722;6.440;2023-03-05T02:40:06;11.65;;;3.75;;
52674;SDS011;38569;52.722;6.440;2023-03-05T02:42:32;7.97;;;2.10;;
52674;SDS011;38569;52.722;6.440;2023-03-05T02:45:01;8.93;;;2.95;;
52674;SDS011;38569;52.722;6.440;2023-03-05T02:47:27;6.63;;;2.03;;
52674;SDS011;38569;52.722;6.440;2023-03-05T02:49:53;5.18;;;1.77;;
52674;SDS011;38569;52.722;6.440;2023-03-05T02:52:20;7.68;;;1.70;;
52674;SDS011;38569;52.722;6.440;2023-03-05T02:54:47;8.05;;;2.03;;
52674;SDS011;38569;52.722;6.440;2023-03-05T02:57:14;9.27;;;1.85;;
52674;SDS011;38569;52.722;6.440;2023-03-05T02:59:40;9.27;;;2.13;;
52674;SDS011;38569;52.722;6.440;2023-03-05T03:02:06;11.35;;;2.05;;
52674;SDS011;38569;52.722;6.440;2023-03-05T03:04:32;7.55;;;2.13;;
52674;SDS011;38569;52.722;6.440;2023-03-05T03:06:57;6.85;;;2.03;;
52674;SDS011;38569;52.722;6.440;2023-03-05T03:09:23;6.63;;;1.85;;
52674;SDS011;38569;52.722;6.440;2023-03-05T03:11:50;9.23;;;1.58;;
52674;SDS011;38569;52.722;6.440;2023-03-05T03:14:16;9.30;;;2.40;;
52674;SDS011;38569;52.722;6.440;2023-03-05T03:16:42;8.40;;;2.35;;
52674;SDS011;38569;52.722;6.440;2023-03-05T03:19:08;6.10;;;1.90;;
52674;SDS011;38569;52.722;6.440;2023-03-05T03:21:33;11.10;;;1.95;;
52674;SDS011;38569;52.722;6.440;2023-03-05T03:23:59;5.38;;;1.55;;
52674;SDS011;38569;52.722;6.440;2023-03-05T03:26:25;8.75;;;2.33;;
52674;SDS011;38569;52.722;6.440;2023-03-05T03:28:51;9.10;;;1.80;;
52674;SDS011;38569;52.722;6.440;2023-03-05T03:31:17;7.13;;;1.88;;
52674;SDS011;38569;52.722;6.440;2023-03-05T03:33:43;10.77;;;2.15;;
52674;SDS011;38569;52.722;6.440;2023-03-05T03:36:09;9.38;;;1.77;;
52674;SDS011;38569;52.722;6.440;2023-03-05T03:38:35;5.63;;;2.13;;
52674;SDS011;38569;52.722;6.440;2023-03-05T03:41:01;7.50;;;2.95;;
52674;SDS011;38569;52.722;6.440;2023-03-05T03:43:29;8.95;;;2.00;;
52674;SDS011;38569;52.722;6.440;2023-03-05T03:45:55;6.72;;;2.25;;
52674;SDS011;38569;52.722;6.440;2023-03-05T03:48:20;6.32;;;2.17;;
52674;SDS011;38569;52.722;6.440;2023-03-05T03:50:46;8.60;;;1.92;;
52674;SDS011;38569;52.722;6.440;2023-03-05T03:53:12;9.18;;;2.08;;
52674;SDS011;38569;52.722;6.440;2023-03-05T03:55:38;4.95;;;2.08;;
52674;SDS011;38569;52.722;6.440;2023-03-05T03:58:07;6.82;;;1.95;;
52674;SDS011;38569;52.722;6.440;2023-03-05T04:00:33;6.78;;;1.75;;
52674;SDS011;38569;52.722;6.440;2023-03-05T04:02:59;5.93;;;2.45;;
52674;SDS011;38569;52.722;6.440;2023-03-05T04:05:25;3.40;;;1.45;;
52674;SDS011;38569;52.722;6.440;2023-03-05T04:07:50;5.13;;;1.33;;
52674;SDS011;38569;52.722;6.440;2023-03-05T04:10:16;10.27;;;2.22;;
52674;SDS011;38569;52.722;6.440;2023-03-05T04:12:42;6.00;;;2.15;;
52674;SDS011;38569;52.722;6.440;2023-03-05T04:15:10;10.07;;;1.95;;
52674;SDS011;38569;52.722;6.440;2023-03-05T04:17:36;4.35;;;1.50;;
52674;SDS011;38569;52.722;6.440;2023-03-05T04:20:03;9.93;;;1.92;;
52674;SDS011;38569;52.722;6.440;2023-03-05T04:22:31;11.63;;;1.98;;
52674;SDS011;38569;52.722;6.440;2023-03-05T04:24:56;7.18;;;2.13;;
52674;SDS011;38569;52.722;6.440;2023-03-05T04:27:22;11.68;;;2.17;;
52674;SDS011;38569;52.722;6.440;2023-03-05T04:29:48;7.00;;;1.60;;
52674;SDS011;38569;52.722;6.440;2023-03-05T04:32:14;7.22;;;1.77;;
52674;SDS011;38569;52.722;6.440;2023-03-05T04:34:47;7.70;;;1.70;;
52674;SDS011;38569;52.722;6.440;2023-03-05T04:37:13;5.35;;;1.55;;
52674;SDS011;38569;52.722;6.440;2023-03-05T04:39:38;6.35;;;1.83;;
52674;SDS011;38569;52.722;6.440;2023-03-05T04:42:04;4.28;;;1.73;;
52674;SDS011;38569;52.722;6.440;2023-03-05T04:44:30;8.07;;;2.63;;
52674;SDS011;38569;52.722;6.440;2023-03-05T04:46:56;6.78;;;1.65;;
52674;SDS011;38569;52.722;6.440;2023-03-05T04:49:21;7.88;;;1.80;;
52674;SDS011;38569;52.722;6.440;2023-03-05T04:51:47;5.07;;;1.55;;
52674;SDS011;38569;52.722;6.440;2023-03-05T04:54:13;7.13;;;2.42;;
52674;SDS011;38569;52.722;6.440;2023-03-05T04:56:39;4.63;;;1.90;;
52674;SDS011;38569;52.722;6.440;2023-03-05T04:59:04;4.40;;;1.70;;
52674;SDS011;38569;52.722;6.440;2023-03-05T05:01:30;5.75;;;1.77;;
52674;SDS011;38569;52.722;6.440;2023-03-05T05:03:57;8.88;;;2.10;;
52674;SDS011;38569;52.722;6.440;2023-03-05T05:06:22;8.00;;;2.30;;
52674;SDS011;38569;52.722;6.440;2023-03-05T05:08:48;9.75;;;1.90;;
52674;SDS011;38569;52.722;6.440;2023-03-05T05:11:13;5.88;;;1.92;;
52674;SDS011;38569;52.722;6.440;2023-03-05T05:13:39;8.95;;;2.33;;
52674;SDS011;38569;52.722;6.440;2023-03-05T05:16:05;7.82;;;2.15;;
52674;SDS011;38569;52.722;6.440;2023-03-05T05:18:31;11.52;;;1.83;;
52674;SDS011;38569;52.722;6.440;2023-03-05T05:20:57;6.53;;;2.10;;
52674;SDS011;38569;52.722;6.440;2023-03-05T05:23:23;6.00;;;2.40;;
52674;SDS011;38569;52.722;6.440;2023-03-05T05:25:56;7.70;;;2.20;;
52674;SDS011;38569;52.722;6.440;2023-03-05T05:28:26;9.93;;;2.25;;
52674;SDS011;38569;52.722;6.440;2023-03-05T05:30:53;4.47;;;2.03;;
52674;SDS011;38569;52.722;6.440;2023-03-05T05:33:20;6.90;;;2.13;;
52674;SDS011;38569;52.722;6.440;2023-03-05T05:35:46;3.97;;;2.33;;
52674;SDS011;38569;52.722;6.440;2023-03-05T05:38:12;4.13;;;2.20;;
52674;SDS011;38569;52.722;6.440;2023-03-05T05:40:38;7.63;;;2.45;;
52674;SDS011;38569;52.722;6.440;2023-03-05T05:43:04;8.98;;;1.70;;
52674;SDS011;38569;52.722;6.440;2023-03-05T05:45:30;7.97;;;2.20;;
52674;SDS011;38569;52.722;6.440;2023-03-05T05:47:56;9.48;;;2.13;;
52674;SDS011;38569;52.722;6.440;2023-03-05T05:50:22;5.20;;;1.85;;
52674;SDS011;38569;52.722;6.440;2023-03-05T05:52:49;10.02;;;2.13;;
52674;SDS011;38569;52.722;6.440;2023-03-05T05:55:15;5.68;;;1.85;;
52674;SDS011;38569;52.722;6.440;2023-03-05T05:57:41;6.43;;;2.10;;
52674;SDS011;38569;52.722;6.440;2023-03-05T06:00:07;6.50;;;2.15;;
52674;SDS011;38569;52.722;6.440;2023-03-05T06:02:41;8.30;;;2.10;;
52674;SDS011;38569;52.722;6.440;2023-03-05T06:05:08;9.02;;;2.10;;
52674;SDS011;38569;52.722;6.440;2023-03-05T06:07:36;3.42;;;1.88;;
52674;SDS011;38569;52.722;6.440;2023-03-05T06:10:02;5.43;;;2.00;;
52674;SDS011;38569;52.722;6.440;2023-03-05T06:12:28;11.40;;;2.28;;
52674;SDS011;38569;52.722;6.440;2023-03-05T06:14:54;4.90;;;2.17;;
52674;SDS011;38569;52.722;6.440;2023-03-05T06:17:20;9.57;;;2.47;;
52674;SDS011;38569;52.722;6.440;2023-03-05T06:19:45;5.70;;;2.30;;
52674;SDS011;38569;52.722;6.440;2023-03-05T06:22:11;28.52;;;3.45;;
52674;SDS011;38569;52.722;6.440;2023-03-05T06:24:37;5.50;;;1.95;;
52674;SDS011;38569;52.722;6.440;2023-03-05T06:27:03;9.82;;;2.15;;
52674;SDS011;38569;52.722;6.440;2023-03-05T06:29:29;5.68;;;2.13;;
52674;SDS011;38569;52.722;6.440;2023-03-05T06:31:55;8.43;;;2.30;;
52674;SDS011;38569;52.722;6.440;2023-03-05T06:34:21;6.38;;;2.10;;
52674;SDS011;38569;52.722;6.440;2023-03-05T06:36:47;10.80;;;2.70;;
52674;SDS011;38569;52.722;6.440;2023-03-05T06:39:13;5.78;;;2.17;;
52674;SDS011;38569;52.722;6.440;2023-03-05T06:41:39;10.57;;;2.60;;
52674;SDS011;38569;52.722;6.440;2023-03-05T06:44:04;10.45;;;2.50;;
52674;SDS011;38569;52.722;6.440;2023-03-05T06:46:31;7.88;;;2.67;;
52674;SDS011;38569;52.722;6.440;2023-03-05T06:49:00;8.27;;;2.50;;
52674;SDS011;38569;52.722;6.440;2023-03-05T06:51:27;7.03;;;2.05;;
52674;SDS011;38569;52.722;6.440;2023-03-05T06:54:03;8.13;;;2.47;;
52674;SDS011;38569;52.722;6.440;2023-03-05T06:56:30;8.07;;;2.20;;
52674;SDS011;38569;52.722;6.440;2023-03-05T06:58:56;6.68;;;2.20;;
52674;SDS011;38569;52.722;6.440;2023-03-05T07:01:22;12.00;;;2.15;;
52674;SDS011;38569;52.722;6.440;2023-03-05T07:03:49;8.95;;;2.22;;
52674;SDS011;38569;52.722;6.440;2023-03-05T07:06:16;9.18;;;2.33;;
52674;SDS011;38569;52.722;6.440;2023-03-05T07:08:42;7.15;;;2.22;;
52674;SDS011;38569;52.722;6.440;2023-03-05T07:11:12;8.77;;;2.22;;
52674;SDS011;38569;52.722;6.440;2023-03-05T07:13:43;8.80;;;2.15;;
52674;SDS011;38569;52.722;6.440;2023-03-05T07:16:18;5.28;;;1.90;;
52674;SDS011;38569;52.722;6.440;2023-03-05T07:18:47;7.65;;;2.08;;
52674;SDS011;38569;52.722;6.440;2023-03-05T07:21:14;6.07;;;2.13;;
52674;SDS011;38569;52.722;6.440;2023-03-05T07:23:42;3.83;;;2.13;;
52674;SDS011;38569;52.722;6.440;2023-03-05T07:26:09;6.18;;;2.30;;
52674;SDS011;38569;52.722;6.440;2023-03-05T07:28:34;12.10;;;2.30;;
52674;SDS011;38569;52.722;6.440;2023-03-05T07:31:01;8.10;;;2.00;;
52674;SDS011;38569;52.722;6.440;2023-03-05T07:33:38;9.15;;;1.95;;
52674;SDS011;38569;52.722;6.440;2023-03-05T07:36:06;9.48;;;2.30;;
52674;SDS011;38569;52.722;6.440;2023-03-05T07:38:33;8.82;;;1.63;;
52674;SDS011;38569;52.722;6.440;2023-03-05T07:41:02;9.23;;;1.85;;
52674;SDS011;38569;52.722;6.440;2023-03-05T07:43:29;7.80;;;2.47;;
52674;SDS011;38569;52.722;6.440;2023-03-05T07:45:55;6.97;;;1.90;;
52674;SDS011;38569;52.722;6.440;2023-03-05T07:48:21;6.18;;;2.17;;
52674;SDS011;38569;52.722;6.440;2023-03-05T07:50:48;6.55;;;1.83;;
52674;SDS011;38569;52.722;6.440;2023-03-05T07:53:15;6.22;;;1.83;;
52674;SDS011;38569;52.722;6.440;2023-03-05T07:55:44;4.50;;;1.40;;
52674;SDS011;38569;52.722;6.440;2023-03-05T07:58:11;4.25;;;1.45;;
52674;SDS011;38569;52.722;6.440;2023-03-05T08:00:38;6.82;;;2.17;;
52674;SDS011;38569;52.722;6.440;2023-03-05T08:03:04;8.63;;;1.60;;
52674;SDS011;38569;52.722;6.440;2023-03-05T08:05:31;4.60;;;1.73;;
52674;SDS011;38569;52.722;6.440;2023-03-05T08:07:57;7.30;;;1.77;;
52674;SDS011;38569;52.722;6.440;2023-03-05T08:10:22;5.30;;;1.90;;
52674;SDS011;38569;52.722;6.440;2023-03-05T08:12:48;5.35;;;1.52;;
52674;SDS011;38569;52.722;6.440;2023-03-05T08:15:14;4.55;;;1.70;;
52674;SDS011;38569;52.722;6.440;2023-03-05T08:17:40;2.90;;;1.30;;
52674;SDS011;38569;52.722;6.440;2023-03-05T08:20:05;7.03;;;2.03;;
52674;SDS011;38569;52.722;6.440;2023-03-05T08:22:35;6.38;;;1.45;;
52674;SDS011;38569;52.722;6.440;2023-03-05T08:25:02;9.90;;;2.33;;
52674;SDS011;38569;52.722;6.440;2023-03-05T08:27:29;6.28;;;1.52;;
52674;SDS011;38569;52.722;6.440;2023-03-05T08:29:55;5.82;;;1.80;;
52674;SDS011;38569;52.722;6.440;2023-03-05T08:32:20;4.00;;;1.65;;
52674;SDS011;38569;52.722;6.440;2023-03-05T08:34:46;5.55;;;1.73;;
52674;SDS011;38569;52.722;6.440;2023-03-05T08:37:12;6.88;;;2.08;;
52674;SDS011;38569;52.722;6.440;2023-03-05T08:39:40;6.00;;;2.33;;
52674;SDS011;38569;52.722;6.440;2023-03-05T08:42:06;9.07;;;1.77;;
52674;SDS011;38569;52.722;6.440;2023-03-05T08:44:32;8.18;;;1.83;;
52674;SDS011;38569;52.722;6.440;2023-03-05T08:47:00;6.95;;;1.50;;
52674;SDS011;38569;52.722;6.440;2023-03-05T08:49:26;9.80;;;2.20;;
52674;SDS011;38569;52.722;6.440;2023-03-05T08:51:52;7.20;;;2.08;;
52674;SDS011;38569;52.722;6.440;2023-03-05T08:54:17;9.18;;;1.63;;
52674;SDS011;38569;52.722;6.440;2023-03-05T08:56:43;8.32;;;1.88;;
52674;SDS011;38569;52.722;6.440;2023-03-05T08:59:10;14.57;;;1.92;;
52674;SDS011;38569;52.722;6.440;2023-03-05T09:01:35;15.30;;;1.75;;
52674;SDS011;38569;52.722;6.440;2023-03-05T09:04:01;8.70;;;1.90;;
52674;SDS011;38569;52.722;6.440;2023-03-05T09:06:28;10.30;;;2.20;;
52674;SDS011;38569;52.722;6.440;2023-03-05T09:08:53;8.27;;;1.63;;
52674;SDS011;38569;52.722;6.440;2023-03-05T09:11:19;10.10;;;1.95;;
52674;SDS011;38569;52.722;6.440;2023-03-05T09:13:46;6.07;;;1.42;;
52674;SDS011;38569;52.722;6.440;2023-03-05T09:16:13;8.32;;;2.20;;
52674;SDS011;38569;52.722;6.440;2023-03-05T09:18:41;6.18;;;1.20;;
52674;SDS011;38569;52.722;6.440;2023-03-05T09:21:12;6.03;;;2.30;;
52674;SDS011;38569;52.722;6.440;2023-03-05T09:23:40;7.18;;;1.77;;
52674;SDS011;38569;52.722;6.440;2023-03-05T09:26:07;11.38;;;1.50;;
52674;SDS011;38569;52.722;6.440;2023-03-05T09:28:34;6.63;;;1.35;;
52674;SDS011;38569;52.722;6.440;2023-03-05T09:31:01;9.48;;;1.83;;
52674;SDS011;38569;52.722;6.440;2023-03-05T09:33:31;4.55;;;1.50;;
52674;SDS011;38569;52.722;6.440;2023-03-05T09:35:58;8.77;;;1.48;;
52674;SDS011;38569;52.722;6.440;2023-03-05T09:38:24;9.75;;;2.88;;
52674;SDS011;38569;52.722;6.440;2023-03-05T09:40:52;11.88;;;1.98;;
52674;SDS011;38569;52.722;6.440;2023-03-05T09:46:30;11.38;;;2.30;;
52674;SDS011;38569;52.722;6.440;2023-03-05T09:48:59;7.40;;;1.63;;
52674;SDS011;38569;52.722;6.440;2023-03-05T09:51:42;11.02;;;1.95;;
52674;SDS011;38569;52.722;6.440;2023-03-05T09:54:13;7.82;;;2.58;;
52674;SDS011;38569;52.722;6.440;2023-03-05T09:56:50;6.18;;;1.90;;
52674;SDS011;38569;52.722;6.440;2023-03-05T10:02:01;15.02;;;1.92;;
52674;SDS011;38569;52.722;6.440;2023-03-05T10:04:44;10.60;;;1.80;;
52674;SDS011;38569;52.722;6.440;2023-03-05T10:07:38;11.50;;;2.53;;
52674;SDS011;38569;52.722;6.440;2023-03-05T10:10:09;7.68;;;1.55;;
52674;SDS011;38569;52.722;6.440;2023-03-05T10:12:42;12.15;;;4.65;;
52674;SDS011;38569;52.722;6.440;2023-03-05T10:15:10;7.82;;;1.58;;
52674;SDS011;38569;52.722;6.440;2023-03-05T10:25:48;9.38;;;1.98;;
52674;SDS011;38569;52.722;6.440;2023-03-05T10:33:42;5.18;;;2.05;;
52674;SDS011;38569;52.722;6.440;2023-03-05T10:36:39;4.38;;;1.20;;
52674;SDS011;38569;52.722;6.440;2023-03-05T10:44:43;7.85;;;1.83;;
52674;SDS011;38569;52.722;6.440;2023-03-05T10:50:41;8.80;;;1.42;;
52674;SDS011;38569;52.722;6.440;2023-03-05T10:55:51;7.47;;;1.63;;
52674;SDS011;38569;52.722;6.440;2023-03-05T10:58:20;2.88;;;1.17;;
52674;SDS011;38569;52.722;6.440;2023-03-05T11:09:31;6.72;;;1.25;;
52674;SDS011;38569;52.722;6.440;2023-03-05T11:14:41;2.95;;;1.15;;
52674;SDS011;38569;52.722;6.440;2023-03-05T11:23:01;10.57;;;2.35;;
52674;SDS011;38569;52.722;6.440;2023-03-05T11:28:26;7.22;;;1.52;;
52674;SDS011;38569;52.722;6.440;2023-03-05T11:30:58;4.93;;;1.45;;
52674;SDS011;38569;52.722;6.440;2023-03-05T11:33:24;4.65;;;1.13;;
52674;SDS011;38569;52.722;6.440;2023-03-05T11:38:44;3.95;;;1.00;;
52674;SDS011;38569;52.722;6.440;2023-03-05T11:41:15;3.08;;;0.98;;
52674;SDS011;38569;52.722;6.440;2023-03-05T11:44:03;4.38;;;0.80;;
52674;SDS011;38569;52.722;6.440;2023-03-05T11:49:29;3.65;;;0.90;;
52674;SDS011;38569;52.722;6.440;2023-03-05T11:54:52;3.30;;;0.85;;
52674;SDS011;38569;52.722;6.440;2023-03-05T11:57:24;3.40;;;0.98;;
52674;SDS011;38569;52.722;6.440;2023-03-05T11:59:54;7.28;;;1.15;;
52674;SDS011;38569;52.722;6.440;2023-03-05T12:02:23;6.10;;;1.35;;
52674;SDS011;38569;52.722;6.440;2023-03-05T12:04:50;4.60;;;1.27;;
52674;SDS011;38569;52.722;6.440;2023-03-05T12:07:33;2.90;;;1.10;;
52674;SDS011;38569;52.722;6.440;2023-03-05T12:10:06;2.90;;;0.70;;
52674;SDS011;38569;52.722;6.440;2023-03-05T12:12:54;2.38;;;0.82;;
52674;SDS011;38569;52.722;6.440;2023-03-05T12:23:43;4.78;;;0.95;;
52674;SDS011;38569;52.722;6.440;2023-03-05T12:26:10;3.08;;;1.00;;
52674;SDS011;38569;52.722;6.440;2023-03-05T12:37:06;4.43;;;0.82;;
52674;SDS011;38569;52.722;6.440;2023-03-05T12:42:12;7.28;;;1.30;;
52674;SDS011;38569;52.722;6.440;2023-03-05T12:47:43;5.15;;;1.10;;
52674;SDS011;38569;52.722;6.440;2023-03-05T12:52:51;5.75;;;1.17;;
52674;SDS011;38569;52.722;6.440;2023-03-05T13:00:47;7.47;;;1.38;;
52674;SDS011;38569;52.722;6.440;2023-03-05T13:03:44;6.35;;;1.50;;
52674;SDS011;38569;52.722;6.440;2023-03-05T13:06:30;4.25;;;1.10;;
52674;SDS011;38569;52.722;6.440;2023-03-05T13:11:45;5.43;;;1.95;;
52674;SDS011;38569;52.722;6.440;2023-03-05T13:17:28;2.45;;;1.30;;
52674;SDS011;38569;52.722;6.440;2023-03-05T13:19:55;5.85;;;1.55;;
52674;SDS011;38569;52.722;6.440;2023-03-05T13:22:22;3.25;;;1.30;;
52674;SDS011;38569;52.722;6.440;2023-03-05T13:25:34;4.35;;;1.10;;
52674;SDS011;38569;52.722;6.440;2023-03-05T13:27:37;3.58;;;1.02;;
52674;SDS011;38569;52.722;6.440;2023-03-05T13:30:03;4.00;;;1.52;;
52674;SDS011;38569;52.722;6.440;2023-03-05T13:32:31;3.00;;;0.73;;
52674;SDS011;38569;52.722;6.440;2023-03-05T13:34:58;4.25;;;1.05;;
52674;SDS011;38569;52.722;6.440;2023-03-05T13:37:26;3.92;;;1.23;;
52674;SDS011;38569;52.722;6.440;2023-03-05T13:42:23;7.00;;;2.45;;
52674;SDS011;38569;52.722;6.440;2023-03-05T13:44:56;1.98;;;1.30;;
52674;SDS011;38569;52.722;6.440;2023-03-05T13:47:23;4.45;;;1.85;;
52674;SDS011;38569;52.722;6.440;2023-03-05T13:50:06;6.15;;;1.75;;
52674;SDS011;38569;52.722;6.440;2023-03-05T13:52:45;2.85;;;1.45;;
52674;SDS011;38569;52.722;6.440;2023-03-05T13:55:14;4.55;;;1.25;;
52674;SDS011;38569;52.722;6.440;2023-03-05T13:57:45;2.55;;;0.93;;
52674;SDS011;38569;52.722;6.440;2023-03-05T14:02:52;4.55;;;1.17;;
52674;SDS011;38569;52.722;6.440;2023-03-05T14:05:20;7.88;;;1.10;;
52674;SDS011;38569;52.722;6.440;2023-03-05T14:07:49;8.05;;;1.15;;
52674;SDS011;38569;52.722;6.440;2023-03-05T14:10:30;3.95;;;1.15;;
52674;SDS011;38569;52.722;6.440;2023-03-05T14:13:02;5.22;;;1.33;;
52674;SDS011;38569;52.722;6.440;2023-03-05T14:15:35;6.88;;;1.63;;
52674;SDS011;38569;52.722;6.440;2023-03-05T14:20:36;7.50;;;1.30;;
52674;SDS011;38569;52.722;6.440;2023-03-05T14:26:31;4.63;;;1.65;;
52674;SDS011;38569;52.722;6.440;2023-03-05T14:31:35;3.45;;;1.48;;
52674;SDS011;38569;52.722;6.440;2023-03-05T14:34:15;2.53;;;0.73;;
52674;SDS011;38569;52.722;6.440;2023-03-05T14:36:49;5.25;;;1.70;;
52674;SDS011;38569;52.722;6.440;2023-03-05T14:39:27;3.08;;;0.90;;
52674;SDS011;38569;52.722;6.440;2023-03-05T14:41:55;7.97;;;1.52;;
52674;SDS011;38569;52.722;6.440;2023-03-05T14:44:38;5.35;;;1.40;;
52674;SDS011;38569;52.722;6.440;2023-03-05T14:47:04;7.90;;;1.33;;
52674;SDS011;38569;52.722;6.440;2023-03-05T14:49:31;3.83;;;1.35;;
52674;SDS011;38569;52.722;6.440;2023-03-05T14:51:56;5.97;;;1.05;;
52674;SDS011;38569;52.722;6.440;2023-03-05T14:54:23;3.50;;;1.50;;
52674;SDS011;38569;52.722;6.440;2023-03-05T14:56:50;2.42;;;1.05;;
52674;SDS011;38569;52.722;6.440;2023-03-05T14:59:17;4.30;;;1.77;;
52674;SDS011;38569;52.722;6.440;2023-03-05T15:01:45;6.72;;;1.50;;
52674;SDS011;38569;52.722;6.440;2023-03-05T15:04:10;5.68;;;3.00;;
52674;SDS011;38569;52.722;6.440;2023-03-05T15:06:38;3.75;;;0.95;;
52674;SDS011;38569;52.722;6.440;2023-03-05T15:09:05;4.13;;;1.15;;
52674;SDS011;38569;52.722;6.440;2023-03-05T15:11:32;4.07;;;1.17;;
52674;SDS011;38569;52.722;6.440;2023-03-05T15:13:59;8.35;;;2.22;;
52674;SDS011;38569;52.722;6.440;2023-03-05T15:16:24;4.72;;;1.33;;
52674;SDS011;38569;52.722;6.440;2023-03-05T15:18:50;6.72;;;2.20;;
52674;SDS011;38569;52.722;6.440;2023-03-05T15:21:16;6.93;;;2.35;;
52674;SDS011;38569;52.722;6.440;2023-03-05T15:23:42;5.95;;;1.50;;
52674;SDS011;38569;52.722;6.440;2023-03-05T15:26:10;4.38;;;1.02;;
52674;SDS011;38569;52.722;6.440;2023-03-05T15:28:38;6.13;;;1.30;;
52674;SDS011;38569;52.722;6.440;2023-03-05T15:31:04;4.50;;;1.40;;
52674;SDS011;38569;52.722;6.440;2023-03-05T15:33:31;10.23;;;1.92;;
52674;SDS011;38569;52.722;6.440;2023-03-05T15:35:57;3.90;;;1.50;;
52674;SDS011;38569;52.722;6.440;2023-03-05T15:38:23;4.10;;;1.20;;
52674;SDS011;38569;52.722;6.440;2023-03-05T15:40:51;2.80;;;1.30;;
52674;SDS011;38569;52.722;6.440;2023-03-05T15:43:17;4.40;;;0.95;;
52674;SDS011;38569;52.722;6.440;2023-03-05T15:45:44;4.65;;;1.08;;
52674;SDS011;38569;52.722;6.440;2023-03-05T15:48:10;3.33;;;1.23;;
52674;SDS011;38569;52.722;6.440;2023-03-05T15:50:37;5.63;;;1.50;;
52674;SDS011;38569;52.722;6.440;2023-03-05T15:53:05;5.68;;;1.65;;
52674;SDS011;38569;52.722;6.440;2023-03-05T15:55:35;3.60;;;1.50;;
52674;SDS011;38569;52.722;6.440;2023-03-05T15:58:05;3.45;;;1.55;;
52674;SDS011;38569;52.722;6.440;2023-03-05T16:00:32;5.80;;;1.23;;
52674;SDS011;38569;52.722;6.440;2023-03-05T16:03:01;4.47;;;1.40;;
52674;SDS011;38569;52.722;6.440;2023-03-05T16:05:27;3.05;;;1.63;;
52674;SDS011;38569;52.722;6.440;2023-03-05T16:07:53;8.32;;;2.15;;
52674;SDS011;38569;52.722;6.440;2023-03-05T16:10:21;6.20;;;1.23;;
52674;SDS011;38569;52.722;6.440;2023-03-05T16:12:49;2.40;;;1.15;;
52674;SDS011;38569;52.722;6.440;2023-03-05T16:15:19;3.33;;;1.40;;
52674;SDS011;38569;52.722;6.440;2023-03-05T16:17:47;2.78;;;1.05;;
52674;SDS011;38569;52.722;6.440;2023-03-05T16:20:17;4.70;;;1.38;;
52674;SDS011;38569;52.722;6.440;2023-03-05T16:22:44;10.57;;;1.25;;
52674;SDS011;38569;52.722;6.440;2023-03-05T16:25:10;4.32;;;1.40;;
52674;SDS011;38569;52.722;6.440;2023-03-05T16:27:36;6.38;;;1.58;;
52674;SDS011;38569;52.722;6.440;2023-03-05T16:30:03;5.13;;;1.30;;
52674;SDS011;38569;52.722;6.440;2023-03-05T16:32:29;5.60;;;1.33;;
52674;SDS011;38569;52.722;6.440;2023-03-05T16:34:56;3.00;;;1.13;;
52674;SDS011;38569;52.722;6.440;2023-03-05T16:37:22;8.13;;;1.20;;
52674;SDS011;38569;52.722;6.440;2023-03-05T16:39:49;5.05;;;1.90;;